Time;durP1;ratioP1;P1;durP2;ratioP2;P2;SDS_P1;SDS_P2;PMS_P1;PMS_P2;Temp;Humidity;BMP_temperature;BMP_pressure;BME280_temperature;BME280_humidity;BME280_pressure;Samples;Min_cycle;Max_cycle;Signal;HPM_P1;HPM_P2
2023/08/01 00:00:25;;;;;;;6.63;3.83;;;461.40;2380.80;;;;;;5089405;28;20017;-60
2023/08/01 00:02:51;;;;;;;7.03;4.45;;;461.40;2380.80;;;;;;5089379;28;20101;-61
2023/08/01 00:05:17;;;;;;;12.00;5.28;;;461.40;2380.80;;;;;;5089163;28;20383;-60
2023/08/01 00:07:42;;;;;;;7.78;4.38;;;461.30;2380.80;;;;;;5089729;28;20028;-60
2023/08/01 00:10:09;;;;;;;7.95;4.20;;;461.30;2380.80;;;;;;5088479;28;20016;-61
2023/08/01 00:12:34;;;;;;;8.55;4.65;;;461.30;2380.80;;;;;;5089437;28;20130;-61
2023/08/01 00:15:00;;;;;;;6.93;3.97;;;461.20;2380.80;;;;;;5089164;28;20042;-63
2023/08/01 00:17:26;;;;;;;7.45;4.65;;;461.30;2380.80;;;;;;5089603;28;20067;-61
2023/08/01 00:19:52;;;;;;;7.97;5.00;;;461.30;2380.80;;;;;;5093137;28;20047;-65
2023/08/01 00:22:18;;;;;;;8.02;4.72;;;461.20;2380.80;;;;;;5093342;28;20040;-60
2023/08/01 00:24:43;;;;;;;6.78;3.83;;;461.20;2380.80;;;;;;5092935;28;20385;-64
2023/08/01 00:27:10;;;;;;;7.25;4.43;;;461.20;2380.80;;;;;;5092483;28;20551;-60
2023/08/01 00:29:36;;;;;;;8.82;4.22;;;461.10;2380.80;;;;;;5092773;28;20042;-61
2023/08/01 00:32:02;;;;;;;11.45;4.50;;;461.10;2380.80;;;;;;5092964;28;20024;-67
2023/08/01 00:34:28;;;;;;;7.05;3.92;;;461.10;2380.80;;;;;;5093011;28;20023;-61
2023/08/01 00:36:54;;;;;;;6.65;4.75;;;461.10;2380.80;;;;;;5093809;28;20032;-62
2023/08/01 00:39:20;;;;;;;6.03;4.40;;;461.10;2380.80;;;;;;5092767;28;20061;-62
2023/08/01 00:41:45;;;;;;;9.18;4.85;;;461.10;2380.80;;;;;;5093201;28;20039;-61
2023/08/01 00:44:15;;;;;;;9.88;4.68;;;461.10;2380.80;;;;;;5093152;28;20420;-67
2023/08/01 00:46:40;;;;;;;8.93;4.80;;;461.00;2380.80;;;;;;5093616;28;20481;-61
2023/08/01 00:49:08;;;;;;;10.98;5.15;;;461.00;2380.80;;;;;;5093027;28;20051;-61
2023/08/01 00:51:34;;;;;;;7.18;3.97;;;461.00;2380.80;;;;;;5092923;28;20082;-61
2023/08/01 00:54:00;;;;;;;9.98;4.63;;;460.90;2380.80;;;;;;5093218;28;20023;-62
2023/08/01 00:56:26;;;;;;;10.85;4.88;;;460.80;2380.80;;;;;;5093672;28;20024;-66
2023/08/01 00:58:55;;;;;;;7.68;4.25;;;460.80;2380.80;;;;;;5092383;28;20020;-70
2023/08/01 01:01:21;;;;;;;9.63;4.38;;;460.90;2380.80;;;;;;5082493;28;20031;-69
2023/08/01 01:03:48;;;;;;;7.25;4.68;;;460.80;2380.80;;;;;;5074370;28;20061;-68
2023/08/01 01:06:21;;;;;;;5.57;4.13;;;460.80;2380.80;;;;;;5092929;28;20035;-67
2023/08/01 01:08:48;;;;;;;8.75;4.10;;;460.80;2380.80;;;;;;5092658;28;20539;-62
2023/08/01 01:11:14;;;;;;;11.50;4.13;;;460.80;2380.80;;;;;;5093310;28;20103;-68
2023/08/01 01:13:41;;;;;;;8.00;4.40;;;436.10;2355.20;;;;;;5092362;28;20379;-70
2023/08/01 01:16:07;;;;;;;7.63;3.83;;;436.10;2355.20;;;;;;5092781;28;20024;-67
2023/08/01 01:18:32;;;;;;;8.27;4.13;;;436.10;2355.20;;;;;;5092640;28;20020;-70
2023/08/01 01:20:58;;;;;;;7.00;3.95;;;436.10;2355.20;;;;;;5092006;28;20081;-67
2023/08/01 01:23:27;;;;;;;7.30;4.78;;;436.10;2355.20;;;;;;5092066;28;20035;-61
2023/08/01 01:25:56;;;;;;;12.90;5.13;;;436.00;2355.20;;;;;;5092159;28;20017;-65
2023/08/01 01:28:23;;;;;;;10.32;4.35;;;436.00;2355.20;;;;;;5091453;28;20070;-61
2023/08/01 01:30:49;;;;;;;8.32;4.70;;;436.00;2355.20;;;;;;5090924;28;20111;-61
2023/08/01 01:33:16;;;;;;;7.78;5.43;;;436.00;2355.20;;;;;;5091793;28;20050;-61
2023/08/01 01:35:41;;;;;;;6.57;4.22;;;436.00;2355.20;;;;;;5091599;28;20445;-62
2023/08/01 01:38:09;;;;;;;9.15;4.82;;;435.90;2355.20;;;;;;5091769;28;20099;-62
2023/08/01 01:40:34;;;;;;;7.60;5.22;;;435.90;2355.20;;;;;;5091177;28;20044;-62
2023/08/01 01:43:01;;;;;;;6.70;5.00;;;435.90;2355.20;;;;;;5091493;28;20529;-67
2023/08/01 01:45:27;;;;;;;6.32;4.47;;;435.90;2355.20;;;;;;5091280;28;20024;-61
2023/08/01 01:47:53;;;;;;;5.40;3.95;;;435.80;2355.20;;;;;;5091879;28;20051;-66
2023/08/01 01:50:19;;;;;;;7.30;3.83;;;435.90;2355.20;;;;;;5091440;28;20020;-61
2023/08/01 01:52:45;;;;;;;6.22;4.07;;;435.90;2355.20;;;;;;5091465;28;20054;-68
2023/08/01 01:55:11;;;;;;;9.43;4.97;;;435.80;2355.20;;;;;;5090864;28;20024;-61
2023/08/01 01:57:37;;;;;;;21.70;5.65;;;435.80;2355.20;;;;;;5091488;28;20518;-68
2023/08/01 02:00:10;;;;;;;7.88;5.15;;;435.70;2355.20;;;;;;5090959;28;20770;-69
2023/08/01 02:02:36;;;;;;;7.93;5.50;;;435.80;2355.20;;;;;;5091486;28;20116;-64
2023/08/01 02:05:03;;;;;;;5.15;3.70;;;435.60;2355.20;;;;;;5091009;28;20154;-63
2023/08/01 02:07:29;;;;;;;6.22;4.25;;;435.60;2355.20;;;;;;5090951;28;20119;-64
2023/08/01 02:09:55;;;;;;;11.02;5.03;;;435.60;2355.20;;;;;;5090704;28;20064;-61
2023/08/01 02:12:21;;;;;;;4.72;3.63;;;435.60;2355.20;;;;;;5090882;28;20032;-60
2023/08/01 02:14:47;;;;;;;7.47;4.30;;;435.60;2355.20;;;;;;5090791;28;20100;-65
2023/08/01 02:17:13;;;;;;;6.68;4.60;;;435.60;2355.20;;;;;;5090833;28;20462;-61
2023/08/01 02:19:38;;;;;;;7.70;4.07;;;435.60;2355.20;;;;;;5090620;28;20024;-61
2023/08/01 02:22:04;;;;;;;7.68;4.63;;;435.50;2355.20;;;;;;5090711;28;20036;-61
2023/08/01 02:24:30;;;;;;;8.18;4.95;;;435.50;2355.20;;;;;;5090453;28;20012;-66
2023/08/01 02:26:56;;;;;;;7.43;4.40;;;435.50;2355.20;;;;;;5090878;28;20369;-61
2023/08/01 02:29:21;;;;;;;6.07;4.63;;;435.50;2355.20;;;;;;5090694;28;20462;-67
2023/08/01 02:31:47;;;;;;;6.55;4.35;;;435.60;2355.20;;;;;;5090633;28;20024;-66
2023/08/01 02:34:13;;;;;;;6.15;4.43;;;435.50;2355.20;;;;;;5090416;28;20032;-64
2023/08/01 02:36:40;;;;;;;7.80;4.07;;;435.50;2355.20;;;;;;5090521;28;20509;-60
2023/08/01 02:39:06;;;;;;;6.00;4.30;;;435.40;2355.20;;;;;;5090508;28;20044;-61
2023/08/01 02:41:32;;;;;;;5.97;4.32;;;435.40;2355.20;;;;;;5089124;28;20047;-60
2023/08/01 02:43:58;;;;;;;7.28;4.47;;;435.50;2355.20;;;;;;5090225;28;20028;-61
2023/08/01 02:46:23;;;;;;;7.43;4.07;;;435.40;2355.20;;;;;;5090441;28;20470;-60
2023/08/01 02:48:49;;;;;;;5.65;3.85;;;435.40;2355.20;;;;;;5090203;28;20045;-60
2023/08/01 02:51:15;;;;;;;8.98;3.95;;;435.40;2355.20;;;;;;5090462;28;20020;-60
2023/08/01 02:53:41;;;;;;;6.70;4.25;;;435.40;2355.20;;;;;;5090344;28;20486;-60
2023/08/01 02:56:09;;;;;;;6.88;4.15;;;435.30;2355.20;;;;;;5090257;28;20479;-60
2023/08/01 02:58:35;;;;;;;6.88;4.57;;;435.20;2355.20;;;;;;5090228;28;20031;-60
2023/08/01 03:01:01;;;;;;;6.97;3.75;;;435.20;2355.20;;;;;;5089888;28;20036;-60
2023/08/01 03:03:27;;;;;;;7.78;5.15;;;410.50;2355.20;;;;;;5089824;28;21265;-60
2023/08/01 03:05:53;;;;;;;8.00;5.05;;;435.20;2355.20;;;;;;5090446;28;20028;-61
2023/08/01 03:08:18;;;;;;;8.65;4.28;;;410.50;2355.20;;;;;;5088678;28;20040;-61
2023/08/01 03:10:45;;;;;;;6.90;4.53;;;410.50;2355.20;;;;;;5089707;28;20109;-61
2023/08/01 03:13:11;;;;;;;15.35;5.25;;;410.50;2355.20;;;;;;5089578;28;20428;-61
2023/08/01 03:15:37;;;;;;;8.55;4.10;;;410.50;2355.20;;;;;;5089687;28;20035;-64
2023/08/01 03:18:03;;;;;;;6.95;4.20;;;410.50;2355.20;;;;;;5090159;28;20020;-68
2023/08/01 03:20:29;;;;;;;6.28;4.22;;;410.50;2355.20;;;;;;5089701;28;20536;-61
2023/08/01 03:22:55;;;;;;;8.02;5.15;;;410.50;2355.20;;;;;;5089924;28;20028;-60
2023/08/01 03:25:21;;;;;;;8.50;5.20;;;410.50;2355.20;;;;;;5089660;28;20450;-61
2023/08/01 03:27:46;;;;;;;6.28;4.68;;;410.50;2355.20;;;;;;5089472;28;20036;-61
2023/08/01 03:30:12;;;;;;;7.07;4.65;;;410.50;2355.20;;;;;;5089596;28;20070;-61
2023/08/01 03:32:38;;;;;;;9.48;5.10;;;410.40;2355.20;;;;;;5089639;28;20454;-60
2023/08/01 03:35:05;;;;;;;8.30;4.72;;;410.50;2355.20;;;;;;5089654;28;20097;-60
2023/08/01 03:37:31;;;;;;;7.00;4.70;;;410.50;2355.20;;;;;;5089459;28;20024;-66
2023/08/01 03:39:56;;;;;;;7.43;4.65;;;410.50;2355.20;;;;;;5089312;28;20055;-61
2023/08/01 03:42:22;;;;;;;8.13;5.07;;;410.50;2355.20;;;;;;5088060;28;20036;-60
2023/08/01 03:44:48;;;;;;;6.53;4.55;;;410.50;2355.20;;;;;;5089188;28;20030;-60
2023/08/01 03:47:14;;;;;;;9.60;4.50;;;410.50;2355.20;;;;;;5089573;28;20032;-61
2023/08/01 03:49:39;;;;;;;10.23;4.15;;;435.30;2355.20;;;;;;5089594;28;20022;-60
2023/08/01 03:52:06;;;;;;;9.52;4.40;;;435.40;2355.20;;;;;;5089195;28;20024;-60
2023/08/01 03:54:32;;;;;;;7.65;5.65;;;435.50;2355.20;;;;;;5089791;28;20016;-66
2023/08/01 03:56:57;;;;;;;8.07;4.65;;;435.40;2355.20;;;;;;5089025;28;20371;-60
2023/08/01 03:59:26;;;;;;;10.57;4.90;;;435.50;2355.20;;;;;;5089588;28;20031;-60
2023/08/01 04:01:51;;;;;;;8.52;5.07;;;435.60;2355.20;;;;;;5089034;28;20115;-60
2023/08/01 04:04:17;;;;;;;6.88;4.40;;;435.60;2355.20;;;;;;5089268;28;20096;-61
2023/08/01 04:06:43;;;;;;;8.43;4.68;;;435.60;2355.20;;;;;;5089215;28;20039;-60
2023/08/01 04:09:08;;;;;;;8.30;5.03;;;435.70;2355.20;;;;;;5089153;28;20085;-60
2023/08/01 04:11:34;;;;;;;7.40;4.55;;;435.80;2355.20;;;;;;5089300;28;20410;-59
2023/08/01 04:14:00;;;;;;;5.53;4.22;;;435.80;2355.20;;;;;;5089298;28;20039;-62
2023/08/01 04:16:25;;;;;;;10.50;4.72;;;435.70;2355.20;;;;;;5089133;28;20090;-60
2023/08/01 04:18:51;;;;;;;8.00;4.60;;;435.80;2355.20;;;;;;5089242;28;20394;-62
2023/08/01 04:21:18;;;;;;;8.38;4.75;;;435.90;2355.20;;;;;;5089039;28;20036;-60
2023/08/01 04:23:44;;;;;;;8.18;4.85;;;435.90;2355.20;;;;;;5089208;28;20039;-60
2023/08/01 04:26:09;;;;;;;7.47;4.95;;;436.00;2355.20;;;;;;5088870;28;20024;-60
2023/08/01 04:28:35;;;;;;;5.93;4.30;;;435.90;2355.20;;;;;;5088999;28;20069;-60
2023/08/01 04:31:01;;;;;;;6.40;4.45;;;436.00;2355.20;;;;;;5089145;28;20485;-60
2023/08/01 04:33:27;;;;;;;7.32;4.72;;;436.00;2355.20;;;;;;5088735;28;20023;-61
2023/08/01 04:35:53;;;;;;;8.05;3.95;;;436.10;2355.20;;;;;;5089145;28;20024;-65
2023/08/01 04:38:19;;;;;;;10.10;5.03;;;460.80;2380.80;;;;;;5088922;28;20024;-60
2023/08/01 04:40:45;;;;;;;9.65;4.65;;;460.90;2380.80;;;;;;5088476;28;20046;-65
2023/08/01 04:43:12;;;;;;;12.07;4.50;;;460.90;2380.80;;;;;;5088661;28;20024;-60
2023/08/01 04:45:38;;;;;;;7.13;4.22;;;460.90;2380.80;;;;;;5088661;28;20343;-60
2023/08/01 04:48:03;;;;;;;8.38;4.35;;;461.00;2380.80;;;;;;5089036;28;20031;-60
2023/08/01 04:50:29;;;;;;;13.27;4.57;;;461.10;2380.80;;;;;;5088552;28;20042;-62
2023/08/01 04:52:55;;;;;;;6.35;4.22;;;461.10;2380.80;;;;;;5088927;28;20107;-61
2023/08/01 04:55:20;;;;;;;6.10;4.20;;;461.30;2380.80;;;;;;5089068;28;20034;-60
2023/08/01 04:57:46;;;;;;;5.82;3.88;;;461.50;2380.80;;;;;;5088373;28;20596;-65
2023/08/01 05:00:12;;;;;;;10.75;4.80;;;512.10;2380.80;;;;;;5088337;28;20023;-61
2023/08/01 05:02:38;;;;;;;5.53;4.30;;;640.70;2432.00;;;;;;5088436;28;20039;-60
2023/08/01 05:05:04;;;;;;;9.00;4.60;;;742.80;2022.40;;;;;;5090006;28;20024;-61
2023/08/01 05:07:30;;;;;;;6.05;4.53;;;794.40;1766.40;;;;;;5092092;28;20474;-68
2023/08/01 05:09:56;;;;;;;5.72;4.03;;;845.60;1638.40;;;;;;5091697;28;20031;-61
2023/08/01 05:12:22;;;;;;;4.78;4.22;;;;;;;;;;5091889;28;20020;-61
2023/08/01 05:14:47;;;;;;;9.43;5.05;;;871.30;1510.40;;;;;;5077871;28;20385;-61
2023/08/01 05:17:13;;;;;;;11.43;4.57;;;947.50;1382.40;;;;;;5079305;28;20036;-63
2023/08/01 05:19:39;;;;;;;7.22;5.10;;;973.00;1356.80;;;;;;5084700;28;20033;-61
2023/08/01 05:22:05;;;;;;;8.55;4.88;;;973.20;1331.20;;;;;;5071678;28;20043;-62
2023/08/01 05:24:31;;;;;;;6.72;6.03;;;973.70;1305.60;;;;;;5078507;28;20462;-61
2023/08/01 05:26:57;;;;;;;9.40;5.78;;;973.50;1305.60;;;;;;5092153;28;20082;-67
2023/08/01 05:29:22;;;;;;;9.35;5.28;;;973.20;1305.60;;;;;;5091927;28;20099;-61
2023/08/01 05:31:48;;;;;;;8.90;5.60;;;998.40;1305.60;;;;;;5091382;28;20064;-62
2023/08/01 05:34:14;;;;;;;10.65;5.85;;;948.10;1305.60;;;;;;5091969;28;20020;-61
2023/08/01 05:36:40;;;;;;;8.05;5.78;;;973.10;1305.60;;;;;;5080521;28;20086;-63
2023/08/01 05:39:05;;;;;;;15.77;6.03;;;973.00;1305.60;;;;;;5082504;28;20031;-60
2023/08/01 05:41:31;;;;;;;10.93;5.90;;;973.40;1280.00;;;;;;5090850;28;20085;-61
2023/08/01 05:43:57;;;;;;;8.50;6.60;;;973.20;1305.60;;;;;;5091661;28;20089;-71
2023/08/01 05:46:23;;;;;;;11.45;7.03;;;973.50;1280.00;;;;;;5077677;28;20024;-67
2023/08/01 05:48:49;;;;;;;11.02;6.35;;;998.50;1280.00;;;;;;5091601;28;20101;-62
2023/08/01 05:51:14;;;;;;;11.13;7.30;;;998.90;1254.40;;;;;;5091267;28;20026;-62
2023/08/01 05:53:40;;;;;;;9.32;7.57;;;999.10;1254.40;;;;;;5091468;28;20024;-62
2023/08/01 05:56:06;;;;;;;12.73;7.20;;;1049.60;1228.80;;;;;;5091395;28;20119;-61
2023/08/01 05:58:32;;;;;;;15.48;9.15;;;1050.10;1203.20;;;;;;5091074;28;20024;-62
2023/08/01 06:00:57;;;;;;;11.52;9.15;;;1049.80;1177.60;;;;;;5090688;28;20378;-61
2023/08/01 06:03:23;;;;;;;13.30;9.13;;;999.30;1228.80;;;;;;5091237;28;20060;-62
2023/08/01 06:05:49;;;;;;;10.20;9.20;;;998.70;1254.40;;;;;;5090751;28;20035;-62
2023/08/01 06:08:15;;;;;;;13.75;8.10;;;973.30;1280.00;;;;;;5078915;28;20037;-61
2023/08/01 06:10:42;;;;;;;14.27;9.18;;;973.30;1280.00;;;;;;5090643;28;20393;-61
2023/08/01 06:13:08;;;;;;;15.07;10.65;;;999.10;1254.40;;;;;;5090777;28;20385;-61
2023/08/01 06:15:34;;;;;;;17.83;10.07;;;998.80;1254.40;;;;;;5090649;28;20039;-64
2023/08/01 06:18:01;;;;;;;10.57;7.95;;;973.50;1280.00;;;;;;5090561;28;20032;-61
2023/08/01 06:20:26;;;;;;;12.68;11.02;;;998.60;1254.40;;;;;;5090806;28;20031;-61
2023/08/01 06:22:52;;;;;;;21.00;17.95;;;1024.40;1177.60;;;;;;5090923;28;20035;-69
2023/08/01 06:25:18;;;;;;;22.63;18.65;;;1050.10;1177.60;;;;;;5090644;28;20062;-61
2023/08/01 06:27:43;;;;;;;15.30;12.10;;;1075.30;1177.60;;;;;;5090646;28;20062;-61
2023/08/01 06:30:10;;;;;;;13.25;9.55;;;1049.60;1203.20;;;;;;5090585;28;20020;-70
2023/08/01 06:32:35;;;;;;;17.50;12.50;;;1024.20;1203.20;;;;;;5090515;28;20035;-61
2023/08/01 06:35:02;;;;;;;20.13;9.48;;;999.30;1228.80;;;;;;5090747;28;20378;-61
2023/08/01 06:37:27;;;;;;;12.88;8.85;;;1024.30;1203.20;;;;;;5090545;28;20020;-63
2023/08/01 06:39:54;;;;;;;15.50;10.68;;;1024.70;1203.20;;;;;;5090352;28;20055;-66
2023/08/01 06:42:20;;;;;;;17.13;10.27;;;999.10;1228.80;;;;;;5089997;28;20043;-62
2023/08/01 06:44:46;;;;;;;12.82;9.63;;;1050.00;1203.20;;;;;;5090463;28;20386;-62
2023/08/01 06:47:12;;;;;;;13.38;10.90;;;1049.90;1203.20;;;;;;5090138;28;20063;-61
2023/08/01 06:49:37;;;;;;;13.63;9.32;;;1024.30;1203.20;;;;;;5090106;28;20136;-61
2023/08/01 06:52:03;;;;;;;10.73;9.63;;;999.30;1228.80;;;;;;5090124;28;20024;-61
2023/08/01 06:54:29;;;;;;;15.10;10.27;;;1024.10;1228.80;;;;;;5089973;28;20020;-63
2023/08/01 06:56:55;;;;;;;18.83;9.90;;;1024.50;1203.20;;;;;;5090163;28;20020;-62
2023/08/01 06:59:20;;;;;;;11.63;10.30;;;1049.70;1203.20;;;;;;5090259;28;20026;-69
2023/08/01 07:01:46;;;;;;;15.43;10.18;;;1024.60;1228.80;;;;;;5089650;28;20039;-67
2023/08/01 07:04:13;;;;;;;11.70;10.25;;;1050.30;1203.20;;;;;;5090007;28;20440;-61
2023/08/01 07:06:39;;;;;;;12.15;9.43;;;1075.80;1152.00;;;;;;5090026;28;20090;-61
2023/08/01 07:09:05;;;;;;;13.30;10.50;;;1050.50;1203.20;;;;;;5090044;28;20497;-61
2023/08/01 07:11:31;;;;;;;18.40;11.13;;;1050.50;1203.20;;;;;;5089595;28;20032;-61
2023/08/01 07:13:57;;;;;;;12.38;10.55;;;1050.00;1228.80;;;;;;5090039;28;20035;-61
2023/08/01 07:16:23;;;;;;;11.20;9.90;;;1050.10;1228.80;;;;;;5089754;28;20016;-61
2023/08/01 07:18:50;;;;;;;10.60;9.70;;;1075.30;1203.20;;;;;;5089899;28;20393;-61
2023/08/01 07:21:16;;;;;;;11.80;10.55;;;1100.90;1177.60;;;;;;5089822;28;20535;-61
2023/08/01 07:23:42;;;;;;;11.35;10.13;;;1075.80;1177.60;;;;;;5089809;28;20052;-62
2023/08/01 07:26:07;;;;;;;10.40;9.55;;;1075.70;1177.60;;;;;;5089469;28;20102;-61
2023/08/01 07:28:33;;;;;;;11.73;10.45;;;1075.60;1177.60;;;;;;5089347;28;20031;-68
2023/08/01 07:31:04;;;;;;;10.38;9.38;;;1101.70;1152.00;;;;;;5089018;28;20500;-62
2023/08/01 07:33:31;;;;;;;12.55;10.57;;;1101.50;1152.00;;;;;;5089642;28;20107;-69
2023/08/01 07:35:56;;;;;;;11.25;10.35;;;1101.30;1152.00;;;;;;5089352;28;20531;-69
2023/08/01 07:38:22;;;;;;;11.43;10.48;;;1101.70;1152.00;;;;;;5090084;28;20016;-61
2023/08/01 07:40:48;;;;;;;11.73;10.15;;;1101.50;1152.00;;;;;;5088815;28;20066;-62
2023/08/01 07:43:14;;;;;;;11.07;10.18;;;1101.20;1177.60;;;;;;5089486;28;20036;-61
2023/08/01 07:45:39;;;;;;;19.08;11.40;;;1127.10;1152.00;;;;;;5089061;28;21400;-63
2023/08/01 07:48:05;;;;;;;11.38;10.00;;;1178.50;1049.60;;;;;;5089291;28;20027;-62
2023/08/01 07:50:31;;;;;;;11.30;10.40;;;1177.70;1075.20;;;;;;5089173;28;20023;-68
2023/08/01 07:52:57;;;;;;;10.57;9.55;;;1178.10;1075.20;;;;;;5089408;28;20115;-68
2023/08/01 07:55:23;;;;;;;10.38;9.48;;;1152.20;1100.80;;;;;;5089273;28;20027;-62
2023/08/01 07:57:48;;;;;;;10.82;10.02;;;1178.10;1100.80;;;;;;5089162;28;20020;-62
2023/08/01 08:00:15;;;;;;;13.15;10.48;;;1178.00;1075.20;;;;;;5089042;28;20047;-61
2023/08/01 08:02:45;;;;;;;16.30;10.32;;;1178.00;1075.20;;;;;;5088911;28;20028;-63
2023/08/01 08:05:11;;;;;;;12.35;11.35;;;1152.70;1100.80;;;;;;5089018;28;20016;-68
2023/08/01 08:07:37;;;;;;;10.80;9.68;;;1152.60;1100.80;;;;;;5088993;28;20035;-62
2023/08/01 08:10:05;;;;;;;11.88;10.70;;;1178.10;1075.20;;;;;;5088859;28;20035;-61
2023/08/01 08:12:30;;;;;;;11.15;10.15;;;1152.90;1100.80;;;;;;5089223;28;20054;-62
2023/08/01 08:14:56;;;;;;;12.07;10.88;;;1178.30;1049.60;;;;;;5088925;28;20020;-62
2023/08/01 08:17:22;;;;;;;12.15;10.95;;;1178.10;1049.60;;;;;;5089064;28;20484;-65
2023/08/01 08:19:47;;;;;;;14.48;9.98;;;1178.50;1049.60;;;;;;5089121;28;20036;-62
2023/08/01 08:22:13;;;;;;;11.13;10.02;;;1178.50;1049.60;;;;;;5089040;28;20050;-62
2023/08/01 08:24:39;;;;;;;9.95;9.10;;;1177.60;1075.20;;;;;;5088972;28;20017;-62
2023/08/01 08:27:05;;;;;;;11.02;10.13;;;1126.40;1152.00;;;;;;5089030;28;20073;-62
2023/08/01 08:29:32;;;;;;;10.35;9.55;;;1126.70;1152.00;;;;;;5088744;28;20498;-62
2023/08/01 08:31:58;;;;;;;8.73;8.13;;;1075.80;1152.00;;;;;;5088785;28;20032;-62
2023/08/01 08:34:24;;;;;;;8.43;7.55;;;1049.80;1203.20;;;;;;5088949;28;20024;-61
2023/08/01 08:36:50;;;;;;;10.90;7.05;;;973.60;1280.00;;;;;;5088707;28;20024;-61
2023/08/01 08:39:17;;;;;;;10.43;5.93;;;922.40;1356.80;;;;;;5088873;28;20056;-61
2023/08/01 08:41:47;;;;;;;9.27;5.93;;;921.80;1408.00;;;;;;5092608;28;20055;-61
2023/08/01 08:44:20;;;;;;;8.65;5.60;;;896.50;1459.20;;;;;;5092981;28;20020;-61
2023/08/01 08:46:50;;;;;;;8.35;5.90;;;870.50;1484.80;;;;;;5092557;28;20020;-68
2023/08/01 08:49:19;;;;;;;8.10;6.10;;;870.50;1484.80;;;;;;5092883;28;20024;-61
2023/08/01 08:51:46;;;;;;;6.57;5.72;;;845.40;1510.40;;;;;;5092548;28;20517;-61
2023/08/01 08:54:13;;;;;;;9.68;5.68;;;870.40;1536.00;;;;;;5092264;28;20035;-61
2023/08/01 08:56:40;;;;;;;6.82;5.18;;;870.40;1510.40;;;;;;5092308;28;20031;-68
2023/08/01 08:59:07;;;;;;;5.90;5.00;;;870.40;1536.00;;;;;;5092523;28;20103;-61
2023/08/01 09:01:34;;;;;;;7.22;4.65;;;845.70;1536.00;;;;;;5092039;28;20055;-61
2023/08/01 09:04:00;;;;;;;7.18;4.93;;;845.10;1484.80;;;;;;5092017;28;20216;-61
2023/08/01 09:06:30;;;;;;;7.22;4.90;;;845.40;1484.80;;;;;;5092495;28;20059;-61
2023/08/01 09:09:04;;;;;;;7.40;4.43;;;844.80;1510.40;;;;;;5092141;28;20542;-62
2023/08/01 09:11:44;;;;;;;7.13;4.55;;;820.00;1484.80;;;;;;5091710;28;20066;-61
2023/08/01 09:14:10;;;;;;;5.15;4.65;;;819.90;1484.80;;;;;;5091751;28;20386;-67
2023/08/01 09:16:36;;;;;;;10.07;4.57;;;819.90;1484.80;;;;;;5091866;28;20028;-60
2023/08/01 09:19:02;;;;;;;6.32;4.72;;;820.10;1433.60;;;;;;5091841;28;20039;-61
2023/08/01 09:21:35;;;;;;;4.53;4.03;;;819.60;1484.80;;;;;;5091452;28;20686;-61
2023/08/01 09:24:17;;;;;;;6.07;4.55;;;819.60;1484.80;;;;;;5091846;28;20416;-61
2023/08/01 09:26:44;;;;;;;5.47;4.00;;;819.30;1459.20;;;;;;5091969;28;20020;-64
2023/08/01 09:29:10;;;;;;;5.00;4.03;;;819.40;1484.80;;;;;;5091861;28;20024;-62
2023/08/01 09:31:38;;;;;;;5.50;3.67;;;794.20;1484.80;;;;;;5091538;28;20449;-68
2023/08/01 09:34:05;;;;;;;7.75;4.18;;;819.30;1484.80;;;;;;5091808;28;20059;-62
2023/08/01 09:36:32;;;;;;;5.65;4.80;;;819.30;1536.00;;;;;;5078499;28;20073;-67
2023/08/01 09:38:59;;;;;;;5.38;4.13;;;819.60;1510.40;;;;;;5091671;28;20420;-61
2023/08/01 09:41:25;;;;;;;8.48;4.13;;;819.80;1484.80;;;;;;5091164;28;20536;-62
2023/08/01 09:43:51;;;;;;;6.05;3.83;;;819.90;1484.80;;;;;;5091615;28;20032;-61
2023/08/01 09:46:17;;;;;;;6.65;4.72;;;819.80;1459.20;;;;;;5091557;28;20904;-61
2023/08/01 09:48:43;;;;;;;5.80;4.32;;;819.80;1433.60;;;;;;5091499;28;20028;-63
2023/08/01 09:51:14;;;;;;;11.63;4.88;;;819.60;1433.60;;;;;;5090937;28;20027;-65
2023/08/01 09:53:55;;;;;;;10.43;4.30;;;819.80;1459.20;;;;;;5091243;28;20077;-63
2023/08/01 09:56:25;;;;;;;5.22;3.85;;;820.00;1433.60;;;;;;5091699;28;20028;-60
2023/08/01 09:58:54;;;;;;;6.63;3.53;;;819.90;1382.40;;;;;;5091073;28;20063;-61
2023/08/01 10:01:22;;;;;;;5.75;3.83;;;819.90;1408.00;;;;;;5091282;28;20134;-61
2023/08/01 10:03:50;;;;;;;6.25;4.10;;;819.90;1433.60;;;;;;5090877;28;20418;-61
2023/08/01 10:06:20;;;;;;;4.55;3.78;;;819.40;1459.20;;;;;;5091340;28;20362;-61
2023/08/01 10:08:47;;;;;;;4.80;3.85;;;819.30;1433.60;;;;;;5090675;28;20020;-64
2023/08/01 10:11:18;;;;;;;4.80;4.00;;;819.30;1433.60;;;;;;5091102;28;20035;-67
2023/08/01 10:13:44;;;;;;;8.00;3.83;;;819.60;1459.20;;;;;;5091157;28;20028;-61
2023/08/01 10:16:11;;;;;;;4.38;3.75;;;819.40;1433.60;;;;;;5090794;28;20051;-61
2023/08/01 10:18:39;;;;;;;6.97;3.40;;;819.30;1408.00;;;;;;5090951;28;20545;-67
2023/08/01 10:21:06;;;;;;;5.75;3.53;;;819.30;1433.60;;;;;;5090749;28;20036;-61
2023/08/01 10:23:33;;;;;;;7.93;3.78;;;819.30;1408.00;;;;;;5090233;28;20035;-61
2023/08/01 10:26:01;;;;;;;6.47;3.65;;;819.60;1433.60;;;;;;5090662;28;20111;-61
2023/08/01 10:28:37;;;;;;;7.65;4.00;;;819.70;1459.20;;;;;;5077474;28;20069;-61
2023/08/01 10:31:11;;;;;;;5.78;3.35;;;794.50;1433.60;;;;;;5090316;28;20043;-61
2023/08/01 10:33:38;;;;;;;5.80;4.75;;;794.50;1459.20;;;;;;5090639;28;20028;-61
2023/08/01 10:36:34;;;;;;;9.13;4.43;;;794.50;1459.20;;;;;;5090350;28;20028;-61
2023/08/01 10:39:01;;;;;;;5.78;3.80;;;794.40;1433.60;;;;;;5027520;28;20503;-67
2023/08/01 10:41:31;;;;;;;5.45;3.53;;;794.20;1433.60;;;;;;5027721;28;20053;-68
2023/08/01 10:44:06;;;;;;;4.38;3.42;;;794.10;1459.20;;;;;;5027915;28;20124;-61
2023/08/01 10:46:54;;;;;;;4.05;3.08;;;794.20;1408.00;;;;;;5027414;28;20056;-68
2023/08/01 10:49:36;;;;;;;4.80;3.58;;;794.40;1433.60;;;;;;5027576;28;20506;-68
2023/08/01 10:52:17;;;;;;;12.75;3.15;;;794.00;1433.60;;;;;;5027687;28;20028;-61
2023/08/01 10:54:43;;;;;;;5.38;3.85;;;794.00;1433.60;;;;;;5027814;28;20415;-59
2023/08/01 10:57:18;;;;;;;6.78;4.43;;;794.00;1459.20;;;;;;5027203;28;20727;-59
2023/08/01 10:59:45;;;;;;;9.02;4.18;;;794.10;1433.60;;;;;;5027731;28;20079;-59
2023/08/01 11:02:11;;;;;;;3.65;2.78;;;794.00;1433.60;;;;;;5026417;28;20124;-60
2023/08/01 11:04:36;;;;;;;4.22;3.22;;;794.20;1459.20;;;;;;5027504;28;20100;-59
2023/08/01 11:07:04;;;;;;;5.07;3.47;;;794.20;1536.00;;;;;;5024011;28;20040;-57
2023/08/01 11:09:30;;;;;;;5.70;4.10;;;794.00;1433.60;;;;;;5025020;28;20045;-62
2023/08/01 11:11:58;;;;;;;4.78;3.80;;;794.10;1433.60;;;;;;5008637;28;20038;-64
2023/08/01 11:14:26;;;;;;;5.75;4.05;;;794.00;1433.60;;;;;;5028939;28;20025;-60
2023/08/01 11:16:54;;;;;;;8.80;5.10;;;794.10;1459.20;;;;;;5087030;28;20024;-64
2023/08/01 11:19:24;;;;;;;5.10;4.07;;;794.20;1459.20;;;;;;5087368;28;20020;-61
2023/08/01 11:21:51;;;;;;;5.43;3.60;;;794.00;1408.00;;;;;;5088296;28;20039;-63
2023/08/01 11:24:18;;;;;;;6.50;4.53;;;794.20;1459.20;;;;;;5088103;28;20024;-60
2023/08/01 11:26:48;;;;;;;6.25;5.00;;;794.50;1433.60;;;;;;5088362;28;20106;-61
2023/08/01 11:29:15;;;;;;;7.28;6.57;;;794.50;1433.60;;;;;;5087951;28;20028;-61
2023/08/01 11:31:52;;;;;;;6.60;3.92;;;819.20;1433.60;;;;;;5087173;28;20059;-60
2023/08/01 11:34:18;;;;;;;7.95;3.97;;;794.50;1408.00;;;;;;5087682;28;20022;-61
2023/08/01 11:36:45;;;;;;;5.75;4.10;;;794.50;1433.60;;;;;;5074571;28;20032;-61
2023/08/01 11:39:12;;;;;;;6.10;4.38;;;819.30;1484.80;;;;;;5087613;28;20077;-66
2023/08/01 11:41:38;;;;;;;4.45;3.60;;;819.40;1459.20;;;;;;5087459;28;20122;-60
2023/08/01 11:44:04;;;;;;;5.35;4.40;;;819.20;1484.80;;;;;;5087354;28;20502;-60
2023/08/01 11:46:35;;;;;;;5.57;4.30;;;819.50;1510.40;;;;;;5087467;28;20099;-60
2023/08/01 11:49:02;;;;;;;5.43;4.07;;;819.20;1484.80;;;;;;5087696;28;20069;-63
2023/08/01 11:51:28;;;;;;;5.30;4.07;;;794.50;1484.80;;;;;;5087846;28;20473;-60
2023/08/01 11:54:03;;;;;;;4.35;3.58;;;794.50;1484.80;;;;;;5087743;28;20085;-61
2023/08/01 11:56:33;;;;;;;6.05;4.15;;;819.20;1484.80;;;;;;5087658;28;20031;-60
2023/08/01 11:58:59;;;;;;;4.55;3.78;;;819.30;1484.80;;;;;;5086972;28;20032;-61
2023/08/01 12:01:25;;;;;;;5.95;4.22;;;819.60;1484.80;;;;;;5087668;28;20089;-61
2023/08/01 12:03:55;;;;;;;6.40;4.05;;;819.50;1484.80;;;;;;5087406;28;20545;-62
2023/08/01 12:06:23;;;;;;;6.82;4.10;;;819.60;1459.20;;;;;;5087499;28;20111;-63
2023/08/01 12:08:51;;;;;;;4.38;3.53;;;819.60;1484.80;;;;;;5087404;28;20103;-64